sensor_id;sensor_type;location;lat;lon;timestamp;pressure;altitude;pressure_sealevel;temperature;humidity
42591;BME280;28218;53.342;-6.216;2023-10-09T00:00:35;101972.22;;;18.46;100.00
42591;BME280;28218;53.342;-6.216;2023-10-09T00:03:18;101964.56;;;18.43;100.00
42591;BME280;28218;53.342;-6.216;2023-10-09T00:05:49;101974.41;;;18.43;100.00
42591;BME280;28218;53.342;-6.216;2023-10-09T00:08:22;101975.44;;;18.42;100.00
42591;BME280;28218;53.342;-6.216;2023-10-09T00:10:59;101977.28;;;18.41;100.00
42591;BME280;28218;53.342;-6.216;2023-10-09T00:13:40;101976.00;;;18.37;100.00
42591;BME280;28218;53.342;-6.216;2023-10-09T00:16:17;101973.53;;;18.35;100.00
42591;BME280;28218;53.342;-6.216;2023-10-09T00:18:50;101962.22;;;18.33;100.00
42591;BME280;28218;53.342;-6.216;2023-10-09T00:21:20;101974.72;;;18.33;100.00
42591;BME280;28218;53.342;-6.216;2023-10-09T00:23:49;101963.44;;;18.31;100.00
42591;BME280;28218;53.342;-6.216;2023-10-09T00:26:24;101964.06;;;18.33;100.00
42591;BME280;28218;53.342;-6.216;2023-10-09T00:28:53;101979.25;;;18.32;100.00
42591;BME280;28218;53.342;-6.216;2023-10-09T00:31:21;101986.41;;;18.32;100.00
42591;BME280;28218;53.342;-6.216;2023-10-09T00:33:57;101984.56;;;18.32;100.00
42591;BME280;28218;53.342;-6.216;2023-10-09T00:36:34;101989.91;;;18.32;100.00
42591;BME280;28218;53.342;-6.216;2023-10-09T00:39:18;101988.28;;;18.31;100.00
42591;BME280;28218;53.342;-6.216;2023-10-09T00:42:02;101968.78;;;18.31;100.00
42591;BME280;28218;53.342;-6.216;2023-10-09T00:44:33;101968.13;;;18.29;100.00
42591;BME280;28218;53.342;-6.216;2023-10-09T00:47:06;101974.28;;;18.29;100.00
42591;BME280;28218;53.342;-6.216;2023-10-09T00:49:52;101977.75;;;18.30;100.00
42591;BME280;28218;53.342;-6.216;2023-10-09T00:52:31;101973.28;;;18.30;100.00
42591;BME280;28218;53.342;-6.216;2023-10-09T00:55:02;101975.94;;;18.30;100.00
42591;BME280;28218;53.342;-6.216;2023-10-09T00:57:44;101970.63;;;18.30;100.00
42591;BME280;28218;53.342;-6.216;2023-10-09T01:00:24;101966.47;;;18.28;100.00
42591;BME280;28218;53.342;-6.216;2023-10-09T01:03:00;101959.47;;;18.27;100.00
42591;BME280;28218;53.342;-6.216;2023-10-09T01:05:53;101960.66;;;18.24;100.00
42591;BME280;28218;53.342;-6.216;2023-10-09T01:08:26;101966.47;;;18.28;100.00
42591;BME280;28218;53.342;-6.216;2023-10-09T01:11:14;101973.00;;;18.25;100.00
42591;BME280;28218;53.342;-6.216;2023-10-09T01:13:50;101971.53;;;18.23;100.00
42591;BME280;28218;53.342;-6.216;2023-10-09T01:16:26;101972.94;;;18.19;100.00
42591;BME280;28218;53.342;-6.216;2023-10-09T01:18:57;101968.81;;;18.16;100.00
42591;BME280;28218;53.342;-6.216;2023-10-09T01:21:26;101970.00;;;18.13;100.00
42591;BME280;28218;53.342;-6.216;2023-10-09T01:24:00;101968.53;;;18.11;100.00
42591;BME280;28218;53.342;-6.216;2023-10-09T01:26:35;101985.53;;;18.10;100.00
42591;BME280;28218;53.342;-6.216;2023-10-09T01:29:12;101988.41;;;18.08;100.00
42591;BME280;28218;53.342;-6.216;2023-10-09T01:31:47;101985.94;;;18.07;100.00
42591;BME280;28218;53.342;-6.216;2023-10-09T01:34:22;101991.44;;;18.05;100.00
42591;BME280;28218;53.342;-6.216;2023-10-09T01:37:07;101989.78;;;18.04;100.00
42591;BME280;28218;53.342;-6.216;2023-10-09T01:39:40;101992.81;;;18.01;100.00
42591;BME280;28218;53.342;-6.216;2023-10-09T01:42:09;102005.34;;;18.01;100.00
42591;BME280;28218;53.342;-6.216;2023-10-09T01:44:37;101994.84;;;17.99;100.00
42591;BME280;28218;53.342;-6.216;2023-10-09T01:47:10;101986.84;;;17.99;100.00
42591;BME280;28218;53.342;-6.216;2023-10-09T01:49:45;101985.22;;;17.98;100.00
42591;BME280;28218;53.342;-6.216;2023-10-09T01:52:16;101987.22;;;17.96;100.00
42591;BME280;28218;53.342;-6.216;2023-10-09T01:54:50;101982.91;;;17.95;100.00
42591;BME280;28218;53.342;-6.216;2023-10-09T01:57:20;101982.09;;;17.95;100.00
42591;BME280;28218;53.342;-6.216;2023-10-09T01:59:51;101985.78;;;17.94;100.00
42591;BME280;28218;53.342;-6.216;2023-10-09T02:02:23;101986.78;;;17.93;100.00
42591;BME280;28218;53.342;-6.216;2023-10-09T02:05:03;101989.44;;;17.93;100.00
42591;BME280;28218;53.342;-6.216;2023-10-09T02:07:37;101985.56;;;17.95;100.00
42591;BME280;28218;53.342;-6.216;2023-10-09T02:10:14;101984.56;;;17.96;100.00
42591;BME280;28218;53.342;-6.216;2023-10-09T02:12:59;101992.75;;;17.95;100.00
42591;BME280;28218;53.342;-6.216;2023-10-09T02:15:34;101989.25;;;17.94;100.00
42591;BME280;28218;53.342;-6.216;2023-10-09T02:18:19;101993.78;;;17.94;100.00
42591;BME280;28218;53.342;-6.216;2023-10-09T02:21:07;101993.56;;;17.95;100.00
42591;BME280;28218;53.342;-6.216;2023-10-09T02:23:42;101997.25;;;17.94;100.00
42591;BME280;28218;53.342;-6.216;2023-10-09T02:26:19;102004.25;;;17.95;100.00
42591;BME280;28218;53.342;-6.216;2023-10-09T02:28:53;101996.25;;;17.95;100.00
42591;BME280;28218;53.342;-6.216;2023-10-09T02:31:27;101996.03;;;17.97;100.00
42591;BME280;28218;53.342;-6.216;2023-10-09T02:34:03;101997.72;;;17.98;100.00
42591;BME280;28218;53.342;-6.216;2023-10-09T02:36:36;101989.88;;;17.96;100.00
42591;BME280;28218;53.342;-6.216;2023-10-09T02:39:09;101994.78;;;17.93;100.00
42591;BME280;28218;53.342;-6.216;2023-10-09T02:41:52;101997.44;;;17.93;100.00
42591;BME280;28218;53.342;-6.216;2023-10-09T02:44:25;101991.25;;;17.92;100.00
42591;BME280;28218;53.342;-6.216;2023-10-09T02:46:54;101988.59;;;17.92;100.00
42591;BME280;28218;53.342;-6.216;2023-10-09T02:49:24;101982.44;;;17.92;100.00
42591;BME280;28218;53.342;-6.216;2023-10-09T02:51:54;101973.63;;;17.91;100.00
42591;BME280;28218;53.342;-6.216;2023-10-09T02:54:24;101973.81;;;17.90;100.00
42591;BME280;28218;53.342;-6.216;2023-10-09T02:57:03;101969.94;;;17.92;100.00
42591;BME280;28218;53.342;-6.216;2023-10-09T02:59:35;101965.63;;;17.91;100.00
42591;BME280;28218;53.342;-6.216;2023-10-09T03:02:05;101957.00;;;17.89;100.00
42591;BME280;28218;53.342;-6.216;2023-10-09T03:04:34;101960.69;;;17.88;100.00
42591;BME280;28218;53.342;-6.216;2023-10-09T03:07:02;101954.88;;;17.84;100.00
42591;BME280;28218;53.342;-6.216;2023-10-09T03:09:31;101957.09;;;17.81;100.00
42591;BME280;28218;53.342;-6.216;2023-10-09T03:12:04;101958.72;;;17.82;100.00
42591;BME280;28218;53.342;-6.216;2023-10-09T03:14:37;101966.56;;;17.83;100.00
42591;BME280;28218;53.342;-6.216;2023-10-09T03:17:06;101961.88;;;17.85;100.00
42591;BME280;28218;53.342;-6.216;2023-10-09T03:19:39;101960.22;;;17.84;100.00
42591;BME280;28218;53.342;-6.216;2023-10-09T03:22:08;101957.56;;;17.84;100.00
42591;BME280;28218;53.342;-6.216;2023-10-09T03:24:38;101960.22;;;17.84;100.00
42591;BME280;28218;53.342;-6.216;2023-10-09T03:27:10;101966.38;;;17.85;100.00
42591;BME280;28218;53.342;-6.216;2023-10-09T03:29:40;101970.06;;;17.84;100.00
42591;BME280;28218;53.342;-6.216;2023-10-09T03:32:16;101970.06;;;17.84;100.00
42591;BME280;28218;53.342;-6.216;2023-10-09T03:34:46;101975.94;;;17.79;100.00
42591;BME280;28218;53.342;-6.216;2023-10-09T03:37:17;101966.94;;;17.80;100.00
42591;BME280;28218;53.342;-6.216;2023-10-09T03:39:55;101971.59;;;17.78;100.00
42591;BME280;28218;53.342;-6.216;2023-10-09T03:42:24;101968.50;;;17.75;100.00
42591;BME280;28218;53.342;-6.216;2023-10-09T03:44:53;101969.13;;;17.77;100.00
42591;BME280;28218;53.342;-6.216;2023-10-09T03:47:24;101969.66;;;17.72;100.00
42591;BME280;28218;53.342;-6.216;2023-10-09T03:49:54;101976.81;;;17.72;100.00
42591;BME280;28218;53.342;-6.216;2023-10-09T03:52:24;101982.34;;;17.70;100.00
42591;BME280;28218;53.342;-6.216;2023-10-09T03:54:54;101989.53;;;17.70;100.00
42591;BME280;28218;53.342;-6.216;2023-10-09T03:57:24;101988.25;;;17.66;100.00
42591;BME280;28218;53.342;-6.216;2023-10-09T03:59:52;101982.91;;;17.66;100.00
42591;BME280;28218;53.342;-6.216;2023-10-09T04:02:22;101972.25;;;17.66;100.00
42591;BME280;28218;53.342;-6.216;2023-10-09T04:04:51;101977.56;;;17.66;100.00
42591;BME280;28218;53.342;-6.216;2023-10-09T04:07:19;101964.88;;;17.68;100.00
42591;BME280;28218;53.342;-6.216;2023-10-09T04:09:48;101970.59;;;17.65;100.00
42591;BME280;28218;53.342;-6.216;2023-10-09T04:12:31;101971.41;;;17.65;100.00
42591;BME280;28218;53.342;-6.216;2023-10-09T04:15:01;101975.06;;;17.64;100.00
42591;BME280;28218;53.342;-6.216;2023-10-09T04:17:32;101969.31;;;17.60;100.00
42591;BME280;28218;53.342;-6.216;2023-10-09T04:20:00;101963.31;;;17.58;100.00
42591;BME280;28218;53.342;-6.216;2023-10-09T04:22:57;101959.19;;;17.56;100.00
42591;BME280;28218;53.342;-6.216;2023-10-09T04:25:32;101963.88;;;17.54;100.00
42591;BME280;28218;53.342;-6.216;2023-10-09T04:28:11;101962.41;;;17.51;100.00
42591;BME280;28218;53.342;-6.216;2023-10-09T04:30:47;101957.91;;;17.52;100.00
42591;BME280;28218;53.342;-6.216;2023-10-09T04:33:20;101967.75;;;17.51;100.00
42591;BME280;28218;53.342;-6.216;2023-10-09T04:36:02;101964.69;;;17.54;100.00
42591;BME280;28218;53.342;-6.216;2023-10-09T04:38:45;101964.69;;;17.54;100.00
42591;BME280;28218;53.342;-6.216;2023-10-09T04:41:23;101955.03;;;17.53;100.00
42591;BME280;28218;53.342;-6.216;2023-10-09T04:44:01;101946.22;;;17.53;100.00
42591;BME280;28218;53.342;-6.216;2023-10-09T04:46:47;101961.03;;;17.55;100.00
42591;BME280;28218;53.342;-6.216;2023-10-09T04:49:29;101963.03;;;17.53;100.00
42591;BME280;28218;53.342;-6.216;2023-10-09T04:52:17;101962.41;;;17.51;100.00
42591;BME280;28218;53.342;-6.216;2023-10-09T04:55:16;101965.06;;;17.51;100.00
42591;BME280;28218;53.342;-6.216;2023-10-09T04:57:48;101967.81;;;17.58;100.00
42591;BME280;28218;53.342;-6.216;2023-10-09T05:00:36;101963.50;;;17.57;100.00
42591;BME280;28218;53.342;-6.216;2023-10-09T05:03:30;101967.00;;;17.57;100.00
42591;BME280;28218;53.342;-6.216;2023-10-09T05:06:11;101971.78;;;17.62;100.00
42591;BME280;28218;53.342;-6.216;2023-10-09T05:08:59;101973.44;;;17.63;100.00
42591;BME280;28218;53.342;-6.216;2023-10-09T05:11:35;101980.41;;;17.64;100.00
42591;BME280;28218;53.342;-6.216;2023-10-09T05:14:17;101980.41;;;17.64;100.00
42591;BME280;28218;53.342;-6.216;2023-10-09T05:16:55;101974.09;;;17.65;100.00
42591;BME280;28218;53.342;-6.216;2023-10-09T05:19:23;101966.25;;;17.63;100.00
42591;BME280;28218;53.342;-6.216;2023-10-09T05:22:00;101978.94;;;17.61;100.00
42591;BME280;28218;53.342;-6.216;2023-10-09T05:24:36;101983.63;;;17.59;100.00
42591;BME280;28218;53.342;-6.216;2023-10-09T05:27:14;101978.00;;;17.54;100.00
42591;BME280;28218;53.342;-6.216;2023-10-09T05:30:10;101987.41;;;17.50;100.00
42591;BME280;28218;53.342;-6.216;2023-10-09T05:32:54;101990.44;;;17.47;100.00
42591;BME280;28218;53.342;-6.216;2023-10-09T05:35:52;101990.44;;;17.47;100.00
42591;BME280;28218;53.342;-6.216;2023-10-09T05:38:34;101993.09;;;17.47;100.00
42591;BME280;28218;53.342;-6.216;2023-10-09T05:41:13;102005.59;;;17.47;100.00
42591;BME280;28218;53.342;-6.216;2023-10-09T05:44:14;102010.09;;;17.46;100.00
42591;BME280;28218;53.342;-6.216;2023-10-09T05:47:00;102019.94;;;17.46;100.00
42591;BME280;28218;53.342;-6.216;2023-10-09T05:49:48;102018.44;;;17.43;100.00
42591;BME280;28218;53.342;-6.216;2023-10-09T05:52:29;102013.31;;;17.42;100.00
42591;BME280;28218;53.342;-6.216;2023-10-09T05:54:59;102020.47;;;17.41;100.00
42591;BME280;28218;53.342;-6.216;2023-10-09T05:58:15;102014.47;;;17.39;100.00
42591;BME280;28218;53.342;-6.216;2023-10-09T06:01:07;102012.00;;;17.37;100.00
42591;BME280;28218;53.342;-6.216;2023-10-09T06:03:52;101993.53;;;17.36;100.00
42591;BME280;28218;53.342;-6.216;2023-10-09T06:06:33;101993.09;;;17.32;100.00
42591;BME280;28218;53.342;-6.216;2023-10-09T06:09:01;101993.63;;;17.28;100.00
42591;BME280;28218;53.342;-6.216;2023-10-09T06:11:53;101988.00;;;17.23;100.00
42591;BME280;28218;53.342;-6.216;2023-10-09T06:14:43;101989.38;;;17.19;100.00
42591;BME280;28218;53.342;-6.216;2023-10-09T06:17:16;101983.59;;;17.15;100.00
42591;BME280;28218;53.342;-6.216;2023-10-09T06:19:51;101982.13;;;17.13;100.00
42591;BME280;28218;53.342;-6.216;2023-10-09T06:22:27;101983.09;;;17.11;100.00
42591;BME280;28218;53.342;-6.216;2023-10-09T06:25:21;101987.81;;;17.09;100.00
42591;BME280;28218;53.342;-6.216;2023-10-09T06:27:53;101994.31;;;17.07;100.00
42591;BME280;28218;53.342;-6.216;2023-10-09T06:30:24;101992.84;;;17.04;100.00
42591;BME280;28218;53.342;-6.216;2023-10-09T06:32:55;101985.00;;;17.03;100.00
42591;BME280;28218;53.342;-6.216;2023-10-09T06:35:34;101988.69;;;17.02;100.00
42591;BME280;28218;53.342;-6.216;2023-10-09T06:38:04;101994.56;;;16.97;100.00
42591;BME280;28218;53.342;-6.216;2023-10-09T06:40:49;101998.41;;;16.95;100.00
42591;BME280;28218;53.342;-6.216;2023-10-09T06:43:43;101993.25;;;16.93;100.00
42591;BME280;28218;53.342;-6.216;2023-10-09T06:46:15;101984.63;;;16.91;100.00
42591;BME280;28218;53.342;-6.216;2023-10-09T06:49:10;101989.31;;;16.89;100.00
42591;BME280;28218;53.342;-6.216;2023-10-09T06:52:00;101987.81;;;16.86;100.00
42591;BME280;28218;53.342;-6.216;2023-10-09T06:54:43;101990.69;;;16.85;100.00
42591;BME280;28218;53.342;-6.216;2023-10-09T06:57:18;101996.00;;;16.85;100.00
42591;BME280;28218;53.342;-6.216;2023-10-09T07:00:00;101995.34;;;16.83;100.00
42591;BME280;28218;53.342;-6.216;2023-10-09T07:02:57;101994.31;;;16.84;100.00
42591;BME280;28218;53.342;-6.216;2023-10-09T07:05:38;102001.31;;;16.85;100.00
42591;BME280;28218;53.342;-6.216;2023-10-09T07:08:27;102002.31;;;16.84;100.00
42591;BME280;28218;53.342;-6.216;2023-10-09T07:11:05;102012.78;;;16.85;100.00
42591;BME280;28218;53.342;-6.216;2023-10-09T07:14:05;102014.44;;;16.86;100.00
42591;BME280;28218;53.342;-6.216;2023-10-09T07:16:33;102007.47;;;16.85;100.00
42591;BME280;28218;53.342;-6.216;2023-10-09T07:19:05;102010.97;;;16.86;100.00
42591;BME280;28218;53.342;-6.216;2023-10-09T07:21:55;102008.09;;;16.88;100.00
42591;BME280;28218;53.342;-6.216;2023-10-09T07:24:29;102011.06;;;16.93;100.00
42591;BME280;28218;53.342;-6.216;2023-10-09T07:27:11;102017.88;;;16.95;100.00
42591;BME280;28218;53.342;-6.216;2023-10-09T07:29:41;102028.16;;;16.98;100.00
42591;BME280;28218;53.342;-6.216;2023-10-09T07:32:15;102025.13;;;17.01;100.00
42591;BME280;28218;53.342;-6.216;2023-10-09T07:34:48;102021.94;;;17.06;100.00
42591;BME280;28218;53.342;-6.216;2023-10-09T07:37:26;102021.41;;;17.10;100.00
42591;BME280;28218;53.342;-6.216;2023-10-09T07:39:58;102009.56;;;17.13;100.00
42591;BME280;28218;53.342;-6.216;2023-10-09T07:42:27;102010.03;;;17.17;100.00
42591;BME280;28218;53.342;-6.216;2023-10-09T07:45:11;102015.63;;;17.22;100.00
42591;BME280;28218;53.342;-6.216;2023-10-09T07:48:00;102014.94;;;17.28;100.00
42591;BME280;28218;53.342;-6.216;2023-10-09T07:50:35;102023.41;;;17.31;100.00
42591;BME280;28218;53.342;-6.216;2023-10-09T07:53:08;102027.53;;;17.34;100.00
42591;BME280;28218;53.342;-6.216;2023-10-09T07:55:53;102032.94;;;17.41;100.00
42591;BME280;28218;53.342;-6.216;2023-10-09T07:58:27;102032.25;;;17.47;100.00
42591;BME280;28218;53.342;-6.216;2023-10-09T08:00:57;102030.69;;;17.52;100.00
42591;BME280;28218;53.342;-6.216;2023-10-09T08:03:43;102027.66;;;17.55;100.00
42591;BME280;28218;53.342;-6.216;2023-10-09T08:06:16;102025.28;;;17.60;100.00
42591;BME280;28218;53.342;-6.216;2023-10-09T08:09:02;102025.72;;;17.64;100.00
42591;BME280;28218;53.342;-6.216;2023-10-09T08:12:06;102023.50;;;17.68;100.00
42591;BME280;28218;53.342;-6.216;2023-10-09T08:15:05;102026.84;;;17.70;100.00
42591;BME280;28218;53.342;-6.216;2023-10-09T08:17:53;102033.81;;;17.71;100.00
42591;BME280;28218;53.342;-6.216;2023-10-09T08:20:26;102041.00;;;17.70;100.00
42591;BME280;28218;53.342;-6.216;2023-10-09T08:22:55;102041.81;;;17.71;100.00
42591;BME280;28218;53.342;-6.216;2023-10-09T08:25:24;102041.00;;;17.70;100.00
42591;BME280;28218;53.342;-6.216;2023-10-09T08:27:57;102040.81;;;17.72;100.00
42591;BME280;28218;53.342;-6.216;2023-10-09T08:30:27;102034.44;;;17.73;100.00
42591;BME280;28218;53.342;-6.216;2023-10-09T08:33:16;102033.13;;;17.77;100.00
42591;BME280;28218;53.342;-6.216;2023-10-09T08:36:10;102029.44;;;17.78;100.00
42591;BME280;28218;53.342;-6.216;2023-10-09T08:38:42;102027.41;;;17.80;100.00
42591;BME280;28218;53.342;-6.216;2023-10-09T08:41:12;102035.03;;;17.83;100.00
42591;BME280;28218;53.342;-6.216;2023-10-09T08:43:48;102039.38;;;17.84;100.00
42591;BME280;28218;53.342;-6.216;2023-10-09T08:46:34;102028.31;;;17.87;100.00
42591;BME280;28218;53.342;-6.216;2023-10-09T08:49:04;102025.84;;;17.85;100.00
42591;BME280;28218;53.342;-6.216;2023-10-09T08:51:35;102035.69;;;17.85;100.00
42591;BME280;28218;53.342;-6.216;2023-10-09T08:54:03;102024.22;;;17.84;100.00
42591;BME280;28218;53.342;-6.216;2023-10-09T08:56:39;102028.44;;;17.79;100.00
42591;BME280;28218;53.342;-6.216;2023-10-09T08:59:17;102030.63;;;17.75;100.00
42591;BME280;28218;53.342;-6.216;2023-10-09T09:01:49;102033.63;;;17.72;100.00
42591;BME280;28218;53.342;-6.216;2023-10-09T09:04:35;102030.25;;;17.78;100.00
42591;BME280;28218;53.342;-6.216;2023-10-09T09:07:06;102035.03;;;17.83;100.00
42591;BME280;28218;53.342;-6.216;2023-10-09T09:09:34;102024.84;;;17.86;100.00
42591;BME280;28218;53.342;-6.216;2023-10-09T09:12:05;102028.78;;;17.91;100.00
42591;BME280;28218;53.342;-6.216;2023-10-09T09:14:38;102021.06;;;17.96;100.00
42591;BME280;28218;53.342;-6.216;2023-10-09T09:17:08;102025.00;;;18.00;100.00
42591;BME280;28218;53.342;-6.216;2023-10-09T09:19:38;102035.13;;;18.04;100.00
42591;BME280;28218;53.342;-6.216;2023-10-09T09:22:06;102039.91;;;18.09;100.00
42591;BME280;28218;53.342;-6.216;2023-10-09T09:24:41;102039.34;;;18.13;100.00
42591;BME280;28218;53.342;-6.216;2023-10-09T09:27:45;102036.94;;;18.19;100.00
42591;BME280;28218;53.342;-6.216;2023-10-09T09:30:23;102040.72;;;18.24;100.00
42591;BME280;28218;53.342;-6.216;2023-10-09T09:32:53;102039.53;;;18.27;100.00
42591;BME280;28218;53.342;-6.216;2023-10-09T09:35:35;102039.88;;;18.24;100.00
42591;BME280;28218;53.342;-6.216;2023-10-09T09:38:04;102035.38;;;18.24;100.00
42591;BME280;28218;53.342;-6.216;2023-10-09T09:40:34;102017.78;;;18.30;100.00
42591;BME280;28218;53.342;-6.216;2023-10-09T09:43:09;102030.00;;;18.39;100.00
42591;BME280;28218;53.342;-6.216;2023-10-09T09:45:49;102023.94;;;18.45;100.00
42591;BME280;28218;53.342;-6.216;2023-10-09T09:48:19;102021.88;;;18.47;100.00
42591;BME280;28218;53.342;-6.216;2023-10-09T09:50:47;102012.59;;;18.43;100.00
42591;BME280;28218;53.342;-6.216;2023-10-09T09:53:21;102015.53;;;18.48;100.00
42591;BME280;28218;53.342;-6.216;2023-10-09T09:55:51;102007.16;;;18.51;100.00
42591;BME280;28218;53.342;-6.216;2023-10-09T09:58:26;102006.13;;;18.52;100.00
42591;BME280;28218;53.342;-6.216;2023-10-09T10:01:03;102002.44;;;18.53;100.00
42591;BME280;28218;53.342;-6.216;2023-10-09T10:03:47;102003.66;;;18.51;100.00
42591;BME280;28218;53.342;-6.216;2023-10-09T10:06:18;102001.63;;;18.53;100.00
42591;BME280;28218;53.342;-6.216;2023-10-09T10:08:48;102002.13;;;18.63;100.00
42591;BME280;28218;53.342;-6.216;2023-10-09T10:11:43;101997.41;;;18.80;100.00
42591;BME280;28218;53.342;-6.216;2023-10-09T10:14:14;101990.53;;;18.92;100.00
42591;BME280;28218;53.342;-6.216;2023-10-09T10:17:03;101993.94;;;19.07;100.00
42591;BME280;28218;53.342;-6.216;2023-10-09T10:20:06;101990.75;;;19.19;100.00
42591;BME280;28218;53.342;-6.216;2023-10-09T10:23:16;101981.31;;;19.23;100.00
42591;BME280;28218;53.342;-6.216;2023-10-09T10:25:52;101972.13;;;19.32;100.00
42591;BME280;28218;53.342;-6.216;2023-10-09T10:28:27;101969.84;;;19.29;100.00
42591;BME280;28218;53.342;-6.216;2023-10-09T10:31:09;101966.56;;;19.27;100.00
42591;BME280;28218;53.342;-6.216;2023-10-09T10:34:05;101958.50;;;19.20;100.00
42591;BME280;28218;53.342;-6.216;2023-10-09T10:36:39;101960.16;;;19.21;100.00
42591;BME280;28218;53.342;-6.216;2023-10-09T10:39:11;101949.25;;;19.23;100.00
42591;BME280;28218;53.342;-6.216;2023-10-09T10:41:55;101945.75;;;19.22;100.00
42591;BME280;28218;53.342;-6.216;2023-10-09T10:44:26;101935.50;;;19.26;100.00
42591;BME280;28218;53.342;-6.216;2023-10-09T10:47:10;101950.53;;;19.27;100.00
42591;BME280;28218;53.342;-6.216;2023-10-09T10:49:53;101958.34;;;19.28;100.00
42591;BME280;28218;53.342;-6.216;2023-10-09T10:52:28;101957.16;;;19.37;100.00
42591;BME280;28218;53.342;-6.216;2023-10-09T10:55:11;101961.75;;;19.44;100.00
42591;BME280;28218;53.342;-6.216;2023-10-09T10:58:15;101963.56;;;19.43;100.00
42591;BME280;28218;53.342;-6.216;2023-10-09T11:00:54;101961.88;;;19.35;100.00
42591;BME280;28218;53.342;-6.216;2023-10-09T11:03:40;101964.09;;;19.25;100.00
42591;BME280;28218;53.342;-6.216;2023-10-09T11:06:27;101959.09;;;19.15;100.00
42591;BME280;28218;53.342;-6.216;2023-10-09T11:09:08;101948.53;;;19.07;100.00
42591;BME280;28218;53.342;-6.216;2023-10-09T11:11:49;101947.66;;;19.00;100.00
42591;BME280;28218;53.342;-6.216;2023-10-09T11:14:22;101954.25;;;19.04;100.00
42591;BME280;28218;53.342;-6.216;2023-10-09T11:16:51;101954.91;;;19.06;100.00
42591;BME280;28218;53.342;-6.216;2023-10-09T11:19:26;101948.16;;;19.10;100.00
42591;BME280;28218;53.342;-6.216;2023-10-09T11:21:59;101941.38;;;19.14;100.00
42591;BME280;28218;53.342;-6.216;2023-10-09T11:24:43;101943.88;;;19.16;100.00
42591;BME280;28218;53.342;-6.216;2023-10-09T11:27:12;101944.06;;;19.14;100.00
42591;BME280;28218;53.342;-6.216;2023-10-09T11:29:48;101939.78;;;19.20;100.00
42591;BME280;28218;53.342;-6.216;2023-10-09T11:32:36;101937.38;;;19.25;100.00
42591;BME280;28218;53.342;-6.216;2023-10-09T11:35:12;101943.75;;;19.31;100.00
42591;BME280;28218;53.342;-6.216;2023-10-09T11:37:55;101932.94;;;19.39;100.00
42591;BME280;28218;53.342;-6.216;2023-10-09T11:40:31;101921.66;;;19.44;100.00
42591;BME280;28218;53.342;-6.216;2023-10-09T11:43:17;101925.75;;;19.46;100.00
42591;BME280;28218;53.342;-6.216;2023-10-09T11:45:52;101922.06;;;19.47;100.00
42591;BME280;28218;53.342;-6.216;2023-10-09T11:48:23;101910.81;;;19.58;100.00
42591;BME280;28218;53.342;-6.216;2023-10-09T11:50:58;101905.75;;;19.70;100.00
42591;BME280;28218;53.342;-6.216;2023-10-09T11:53:52;101885.00;;;19.85;100.00
42591;BME280;28218;53.342;-6.216;2023-10-09T11:56:22;101883.81;;;19.95;100.00
42591;BME280;28218;53.342;-6.216;2023-10-09T11:58:53;101883.44;;;20.04;100.00
42591;BME280;28218;53.342;-6.216;2023-10-09T12:01:26;101876.84;;;20.13;100.00
42591;BME280;28218;53.342;-6.216;2023-10-09T12:04:02;101870.28;;;20.23;100.00
42591;BME280;28218;53.342;-6.216;2023-10-09T12:06:30;101861.25;;;20.24;100.00
42591;BME280;28218;53.342;-6.216;2023-10-09T12:09:00;101860.44;;;20.23;100.00
42591;BME280;28218;53.342;-6.216;2023-10-09T12:11:32;101861.44;;;20.22;100.00
42591;BME280;28218;53.342;-6.216;2023-10-09T12:14:01;101855.88;;;20.10;100.00
42591;BME280;28218;53.342;-6.216;2023-10-09T12:16:31;101859.97;;;20.00;100.00
42591;BME280;28218;53.342;-6.216;2023-10-09T12:19:00;101864.91;;;20.03;100.00
42591;BME280;28218;53.342;-6.216;2023-10-09T12:21:29;101861.19;;;20.04;100.00
42591;BME280;28218;53.342;-6.216;2023-10-09T12:23:57;101871.72;;;20.12;100.00
42591;BME280;28218;53.342;-6.216;2023-10-09T12:26:30;101871.53;;;20.20;100.00
42591;BME280;28218;53.342;-6.216;2023-10-09T12:29:02;101873.81;;;20.23;100.00
42591;BME280;28218;53.342;-6.216;2023-10-09T12:31:30;101882.66;;;20.24;100.00
42591;BME280;28218;53.342;-6.216;2023-10-09T12:34:01;101873.59;;;20.25;100.00
42591;BME280;28218;53.342;-6.216;2023-10-09T12:36:29;101875.00;;;20.27;100.00
42591;BME280;28218;53.342;-6.216;2023-10-09T12:39:04;101877.91;;;20.26;100.00
42591;BME280;28218;53.342;-6.216;2023-10-09T12:41:35;101867.59;;;20.23;100.00
42591;BME280;28218;53.342;-6.216;2023-10-09T12:44:08;101877.31;;;20.24;100.00
42591;BME280;28218;53.342;-6.216;2023-10-09T12:46:42;101885.94;;;20.26;100.00
42591;BME280;28218;53.342;-6.216;2023-10-09T12:49:19;101879.75;;;20.25;100.00
42591;BME280;28218;53.342;-6.216;2023-10-09T12:51:52;101870.47;;;20.28;100.00
42591;BME280;28218;53.342;-6.216;2023-10-09T12:54:20;101872.34;;;20.27;100.00
42591;BME280;28218;53.342;-6.216;2023-10-09T12:56:55;101871.13;;;20.23;100.00
42591;BME280;28218;53.342;-6.216;2023-10-09T12:59:25;101874.19;;;20.13;100.00
42591;BME280;28218;53.342;-6.216;2023-10-09T13:01:53;101872.94;;;20.03;100.00
42591;BME280;28218;53.342;-6.216;2023-10-09T13:04:25;101871.50;;;20.00;100.00
42591;BME280;28218;53.342;-6.216;2023-10-09T13:06:59;101866.97;;;20.01;100.00
42591;BME280;28218;53.342;-6.216;2023-10-09T13:09:31;101876.22;;;19.98;100.00
42591;BME280;28218;53.342;-6.216;2023-10-09T13:12:11;101873.72;;;19.90;100.00
42591;BME280;28218;53.342;-6.216;2023-10-09T13:14:46;101879.06;;;19.90;100.00
42591;BME280;28218;53.342;-6.216;2023-10-09T13:17:16;101880.31;;;19.87;100.00
42591;BME280;28218;53.342;-6.216;2023-10-09T13:19:47;101872.88;;;19.83;100.00